aviador You're here:

LFCR Decoded Metar

RODEZ in FRANCE
Report Time2018-07-18 19:30:00
UTC Time2018-07-18 20:05:37
Flight Rules vfr VFR
Wind330° at 07 kt
W.Decomp.*RWY 31: 6.6 kt HW 2.4 kt RCW
W.Rank330° ranks 11
Current wind is above 330° avg. (6.8)
Visibility9999 m
Phenomena:Shower Rain
Clouds:N/A
Expected CloudBase > 1,200 ft AGL from Temp-Dew spread
CeilingNone
Temp19°C (ISA +8)
Dew Point16°C (83% RH)
AAT18.5°C
QNH1018 hPa
Density Alt2,894 ft
Elevation1,903 ft
Report Wrong Elevation
Raw Report
METAR LFCR 181930Z AUTO 33007KT 310V010 9999 ///CB 19/16 Q1018 TEMPO
SHRA BECMG NSC=

Extra information for LFCR:More info

Metar Taf Metar & Taf Last 4 Metars F.Rules Stats Wind Profile Meteogram Temp Stats Airport Information Weather charts Add Link Nearby VenuesMetar ALERT Operation Metar Decoded Social comments